»·PEaware :: N698J KHQM-S23

N698J :: KHQM-S23

FLIGHT INFORMATION

Flight Status: Arrived
Operator: Privately registered:
United States
More flights under this callsign
Pilot: Ahmad S. (5672)
Aircraft: BEECH AIRCRAFT BARON
(BE58)
More flights by this aircraft type
Origin: KHQM Bowerman
United States
Destination: S23 Ione Mun
United States
More flights between these airports :: More routes between these airports
Route: OZALU V27 SEA V120 GEG V112 DIANN
File this flight plan on PilotEdge
Remarks:
Altitude:
(Current/Filed)
11,000ft
Speed:
(Current/Filed)
150kts
Departed: 02-May-20 05:54 AM
Arrived: 02-May-20 07:51 AM
Distance/Time
Traveled:
283nm/1:57
Distance/Time
To Go:
Arrived

Flight Plot

Page will automatically refresh every two minutes.

Flight plan parsing failed; only flown route is shown


Map Options




Map Legend


Flown Route
Filed Route
Departure Airport
Arrival Airport
Navaid (VOR, NDB)
Fix

Horizontal Profiles

Position Reports

Time Latitude Longitude Heading Altitude Ground
Speed
02-May-20 05:45 46.972491 -123.934657 349 21ft 0kts
02-May-20 05:46 46.972491 -123.934657 349 21ft 0kts
02-May-20 05:47 46.972491 -123.934657 349 21ft 0kts
02-May-20 05:48 46.972491 -123.934657 349 21ft 0kts
02-May-20 05:49 46.972491 -123.934657 349 21ft 0kts
02-May-20 05:50 46.972491 -123.934657 349 21ft 0kts
02-May-20 05:51 46.971545 -123.939982 259 21ft 36kts
02-May-20 05:52 46.970622 -123.946190 184 21ft 0kts
02-May-20 05:53 46.971829 -123.931886 79 197ft 95kts
02-May-20 05:54 46.959562 -123.885440 126 1085ft 154kts
02-May-20 05:55 46.924187 -123.880208 246 1897ft 173kts
02-May-20 05:56 46.920513 -123.949007 305 2703ft 174kts
02-May-20 05:57 46.963903 -123.947006 39 3511ft 166kts
02-May-20 05:58 46.991471 -123.891124 60 4119ft 174kts
02-May-20 05:59 47.017389 -123.830714 61 4704ft 176kts
02-May-20 06:00 47.043503 -123.769682 61 5238ft 177kts
02-May-20 06:01 47.067596 -123.706934 71 5737ft 175kts
02-May-20 06:02 47.086041 -123.641033 74 6235ft 175kts
02-May-20 06:03 47.104009 -123.574614 74 6719ft 173kts
02-May-20 06:04 47.121629 -123.509107 74 7189ft 171kts
02-May-20 06:05 47.139065 -123.444046 75 7679ft 171kts
02-May-20 06:06 47.156442 -123.379044 75 8182ft 169kts
02-May-20 06:07 47.173539 -123.314901 75 8668ft 168kts
02-May-20 06:08 47.190393 -123.251509 76 9161ft 165kts
02-May-20 06:09 47.207106 -123.188437 76 9661ft 164kts
02-May-20 06:10 47.223614 -123.125998 77 10148ft 163kts
02-May-20 06:11 47.239995 -123.063894 78 10637ft 162kts
02-May-20 06:12 47.256340 -123.001600 78 11023ft 168kts
02-May-20 06:13 47.274159 -122.933375 76 11004ft 186kts
02-May-20 06:14 47.293091 -122.861220 76 11006ft 189kts
02-May-20 06:15 47.312038 -122.788636 76 11007ft 190kts
02-May-20 06:16 47.330986 -122.715704 76 11010ft 190kts
02-May-20 06:17 47.349818 -122.643013 76 11012ft 190kts
02-May-20 06:18 47.368683 -122.569940 76 11011ft 189kts
02-May-20 06:19 47.387371 -122.497328 76 11002ft 189kts
02-May-20 06:20 47.405950 -122.424899 76 10997ft 188kts
02-May-20 06:21 47.424457 -122.352484 76 10998ft 188kts
02-May-20 06:22 47.434228 -122.279357 96 11000ft 179kts
02-May-20 06:23 47.434394 -122.205906 98 10997ft 178kts
02-May-20 06:24 47.433836 -122.132413 99 10998ft 178kts
02-May-20 06:25 47.433143 -122.059460 99 11001ft 177kts
02-May-20 06:26 47.432375 -121.986312 98 11009ft 177kts
02-May-20 06:27 47.431585 -121.913638 98 11009ft 176kts
02-May-20 06:28 47.430749 -121.841366 98 11012ft 176kts
02-May-20 06:29 47.429858 -121.768925 98 11024ft 176kts
02-May-20 06:30 47.428931 -121.696840 98 11036ft 175kts
02-May-20 06:31 47.427944 -121.624145 98 11039ft 177kts
02-May-20 06:32 47.426926 -121.551808 98 11055ft 176kts
02-May-20 06:33 47.425848 -121.479672 98 11062ft 175kts
02-May-20 06:34 47.424740 -121.407469 99 11067ft 175kts
02-May-20 06:35 47.423573 -121.335059 98 11071ft 177kts
02-May-20 06:36 47.422361 -121.262109 98 11071ft 178kts
02-May-20 06:37 47.421107 -121.189131 98 11075ft 177kts
02-May-20 06:38 47.419794 -121.116005 98 11075ft 178kts
02-May-20 06:39 47.418425 -121.042466 98 11064ft 179kts
02-May-20 06:40 47.417019 -120.968956 99 11063ft 179kts
02-May-20 06:41 47.415563 -120.895693 98 11065ft 178kts
02-May-20 06:42 47.414046 -120.821947 98 11060ft 180kts
02-May-20 06:43 47.412476 -120.747538 98 10998ft 180kts
02-May-20 06:44 47.410869 -120.673663 98 11004ft 179kts
02-May-20 06:45 47.409219 -120.600200 98 11009ft 179kts
02-May-20 06:46 47.407515 -120.526345 98 11024ft 179kts
02-May-20 06:47 47.405770 -120.452674 98 11027ft 180kts
02-May-20 06:48 47.403967 -120.378723 98 11027ft 180kts
02-May-20 06:49 47.402102 -120.304315 98 11033ft 181kts
02-May-20 06:50 47.400199 -120.229950 98 11033ft 181kts
02-May-20 06:51 47.398338 -120.155049 98 11030ft 182kts
02-May-20 06:52 47.396332 -120.077949 97 10568ft 199kts
02-May-20 06:53 47.394199 -119.994479 95 9778ft 206kts
02-May-20 06:54 47.392001 -119.910213 94 8981ft 204kts
02-May-20 06:55 47.389740 -119.826753 94 8181ft 203kts
02-May-20 06:57 47.387398 -119.743047 93 7382ft 204kts
02-May-20 06:58 47.385074 -119.661351 93 7029ft 191kts
02-May-20 06:59 47.382833 -119.585112 93 7002ft 184kts
02-May-20 07:00 47.380576 -119.510144 93 6999ft 181kts
02-May-20 07:01 47.378618 -119.435784 89 7001ft 181kts
02-May-20 07:02 47.385121 -119.361475 82 7003ft 182kts
02-May-20 07:03 47.393191 -119.287655 82 7008ft 182kts
02-May-20 07:04 47.401367 -119.213581 82 7009ft 182kts
02-May-20 07:05 47.409491 -119.139699 82 7011ft 182kts
02-May-20 07:06 47.417568 -119.065812 82 7011ft 182kts
02-May-20 07:07 47.425624 -118.991671 82 7012ft 182kts
02-May-20 07:08 47.433604 -118.917761 82 7013ft 182kts
02-May-20 07:09 47.441564 -118.843576 82 7014ft 182kts
02-May-20 07:10 47.449454 -118.769572 82 7011ft 182kts
02-May-20 07:11 47.457298 -118.695541 82 7012ft 182kts
02-May-20 07:12 47.465095 -118.621443 82 7013ft 182kts
02-May-20 07:12 47.471544 -118.559824 82 7014ft 182kts
02-May-20 07:14 47.480434 -118.474466 83 7265ft 171kts
02-May-20 07:15 47.487563 -118.405258 83 7519ft 175kts
02-May-20 07:15 47.493763 -118.344862 83 7519ft 180kts
02-May-20 07:16 47.501288 -118.271193 83 7524ft 181kts
02-May-20 07:17 47.508752 -118.197614 83 7526ft 181kts
02-May-20 07:18 47.516188 -118.123806 83 7526ft 181kts
02-May-20 07:19 47.523571 -118.050024 83 7527ft 181kts
02-May-20 07:20 47.530900 -117.976289 83 7528ft 181kts
02-May-20 07:21 47.538206 -117.902288 83 7528ft 181kts
02-May-20 07:22 47.545434 -117.828549 83 7528ft 181kts
02-May-20 07:23 47.552663 -117.754323 83 7529ft 182kts
02-May-20 07:24 47.559832 -117.680351 84 7529ft 181kts
02-May-20 07:25 47.580524 -117.615962 33 7539ft 188kts
02-May-20 07:26 47.627409 -117.580447 29 7535ft 189kts
02-May-20 07:27 47.674655 -117.545541 29 7538ft 190kts
02-May-20 07:28 47.721963 -117.510366 29 7543ft 189kts
02-May-20 07:29 47.769129 -117.475199 29 7546ft 190kts
02-May-20 07:30 47.816696 -117.439657 29 7500ft 190kts
02-May-20 07:31 47.863971 -117.404261 29 7502ft 190kts
02-May-20 07:32 47.911277 -117.368765 29 7502ft 190kts
02-May-20 07:33 47.958437 -117.333305 29 7503ft 190kts
02-May-20 07:34 48.005653 -117.297719 28 7506ft 190kts
02-May-20 07:35 48.052685 -117.262211 27 7506ft 188kts
02-May-20 07:36 48.099565 -117.226750 27 7513ft 192kts
02-May-20 07:37 48.147260 -117.190590 27 7512ft 189kts
02-May-20 07:38 48.198643 -117.191422 348 7516ft 190kts
02-May-20 07:39 48.246760 -117.224009 336 7518ft 190kts
02-May-20 07:40 48.295944 -117.254033 342 7520ft 190kts
02-May-20 07:41 48.347391 -117.272618 348 7477ft 193kts
02-May-20 07:42 48.403551 -117.274276 4 6819ft 207kts
02-May-20 07:43 48.460795 -117.268021 2 6284ft 207kts
02-May-20 07:44 48.516351 -117.289428 328 5665ft 209kts
02-May-20 07:45 48.559442 -117.329515 335 5013ft 163kts
02-May-20 07:46 48.601161 -117.351641 341 4241ft 155kts
02-May-20 07:47 48.640719 -117.374798 339 3552ft 143kts
02-May-20 07:48 48.672046 -117.396978 327 2830ft 108kts
02-May-20 07:49 48.696884 -117.409662 349 2238ft 89kts
02-May-20 07:50 48.711219 -117.413653 348 2110ft 23kts
02-May-20 07:51 48.712418 -117.413161 184 2110ft 3kts
02-May-20 07:52 48.712387 -117.413157 169 2110ft 0kts
02-May-20 07:53 48.712387 -117.413157 169 2110ft 0kts
02-May-20 07:54 48.712387 -117.413157 169 2110ft 0kts
02-May-20 07:55 48.712387 -117.413157 169 2110ft 0kts
02-May-20 07:56 48.712387 -117.413157 169 2110ft 0kts
02-May-20 07:57 48.712387 -117.413157 169 2110ft 0kts
02-May-20 07:58 48.712387 -117.413157 169 2110ft 0kts
02-May-20 07:59 48.712387 -117.413157 169 2110ft 0kts
02-May-20 08:00 48.712387 -117.413157 169 2110ft 0kts

Navigation Log

Ident Type
Flight plan parsing failed, navigation log unavailable